Time;durP1;ratioP1;P1;durP2;ratioP2;P2;SDS_P1;SDS_P2;PMS_P1;PMS_P2;Temp;Humidity;BMP_temperature;BMP_pressure;BME280_temperature;BME280_humidity;BME280_pressure;Samples;Min_cycle;Max_cycle;Signal;HPM_P1;HPM_P2
2024/03/11 00:01:44;;;;;;;45.15;19.40;;;;;;;;;;5005201;28;20027;-39
2024/03/11 00:04:12;;;;;;;44.55;19.95;;;;;;;;;;5005014;28;20341;-35
2024/03/11 00:06:40;;;;;;;30.27;19.17;;;;;;;;;;5004868;28;20026;-39
2024/03/11 00:09:15;;;;;;;37.28;19.95;;;;;;;;;;5004895;28;20250;-40
2024/03/11 00:11:48;;;;;;;33.58;19.33;;;;;;;;;;5004984;28;20058;-39
2024/03/11 00:14:21;;;;;;;38.17;23.35;;;;;;;;;;5004643;28;20037;-38
2024/03/11 00:16:47;;;;;;;36.17;22.48;;;;;;;;;;5004915;28;20033;-41
2024/03/11 00:19:14;;;;;;;37.60;21.42;;;;;;;;;;5004466;28;20032;-41
2024/03/11 00:21:42;;;;;;;40.42;20.27;;;;;;;;;;5004863;28;20073;-34
2024/03/11 00:24:09;;;;;;;43.70;23.83;;;;;;;;;;5004942;28;20037;-43
2024/03/11 00:26:36;;;;;;;37.30;20.48;;;;;;;;;;5004666;28;20030;-43
2024/03/11 00:29:04;;;;;;;35.13;19.38;;;;;;;;;;4998752;28;20057;-45
2024/03/11 00:31:32;;;;;;;45.13;20.42;;;;;;;;;;4993655;28;20029;-46
2024/03/11 00:33:59;;;;;;;44.08;21.55;;;;;;;;;;4993294;28;20022;-45
2024/03/11 00:36:26;;;;;;;36.00;19.77;;;;;;;;;;4991221;28;20026;-42
2024/03/11 00:38:52;;;;;;;42.40;20.33;;;;;;;;;;4985160;28;20062;-45
2024/03/11 00:41:19;;;;;;;37.38;19.80;;;;;;;;;;4984874;28;20066;-40
2024/03/11 00:43:47;;;;;;;37.17;19.10;;;;;;;;;;4985142;28;20095;-42
2024/03/11 00:46:13;;;;;;;32.22;18.55;;;;;;;;;;4985179;28;20061;-45
2024/03/11 00:48:40;;;;;;;32.15;19.65;;;;;;;;;;4984913;28;20018;-45
2024/03/11 00:51:06;;;;;;;33.22;19.10;;;;;;;;;;4985214;28;20030;-43
2024/03/11 00:53:34;;;;;;;30.50;18.50;;;;;;;;;;4984805;28;20086;-41
2024/03/11 00:56:01;;;;;;;32.53;18.55;;;;;;;;;;4984958;28;20035;-38
2024/03/11 00:58:28;;;;;;;26.13;17.63;;;;;;;;;;4984808;28;20050;-45
2024/03/11 01:00:55;;;;;;;37.05;18.20;;;;;;;;;;4984898;28;20054;-45
2024/03/11 01:03:22;;;;;;;33.97;17.80;;;;;;;;;;4984679;28;20026;-43
2024/03/11 01:05:53;;;;;;;31.33;18.17;;;;;;;;;;4987042;28;20023;-41
2024/03/11 01:08:20;;;;;;;28.67;17.53;;;;;;;;;;4989106;28;20238;-51
2024/03/11 01:10:46;;;;;;;28.70;17.90;;;;;;;;;;4988603;28;20078;-41
2024/03/11 01:13:13;;;;;;;24.55;16.65;;;;;;;;;;4994870;28;20027;-35
2024/03/11 01:15:40;;;;;;;24.40;16.95;;;;;;;;;;4997767;28;20197;-38
2024/03/11 01:18:16;;;;;;;28.00;17.95;;;;;;;;;;4998308;28;20023;-35
2024/03/11 01:20:46;;;;;;;23.83;16.30;;;;;;;;;;4998889;28;20105;-38
2024/03/11 01:23:13;;;;;;;31.48;17.27;;;;;;;;;;4997236;28;20062;-43
2024/03/11 01:25:39;;;;;;;40.78;18.05;;;;;;;;;;4996655;28;20079;-42
2024/03/11 01:28:10;;;;;;;53.88;18.55;;;;;;;;;;4996946;28;20046;-45
2024/03/11 01:30:37;;;;;;;35.35;17.63;;;;;;;;;;4997713;28;20318;-44
2024/03/11 01:33:05;;;;;;;30.17;16.52;;;;;;;;;;4978970;28;20033;-43
2024/03/11 01:35:32;;;;;;;34.95;17.15;;;;;;;;;;4988165;28;20213;-39
2024/03/11 01:37:58;;;;;;;26.92;16.33;;;;;;;;;;4989062;28;20018;-39
2024/03/11 01:40:29;;;;;;;19.35;16.25;;;;;;;;;;4993298;28;20117;-36
2024/03/11 01:42:56;;;;;;;26.25;16.83;;;;;;;;;;5003060;28;20026;-39
2024/03/11 01:45:25;;;;;;;20.85;16.90;;;;;;;;;;5007732;28;20046;-36
2024/03/11 01:47:52;;;;;;;24.63;17.30;;;;;;;;;;5008138;28;20319;-39
2024/03/11 01:50:19;;;;;;;60.65;20.60;;;;;;;;;;5007480;28;20107;-48
2024/03/11 01:52:48;;;;;;;46.10;18.35;;;;;;;;;;5007948;28;20019;-37
2024/03/11 01:55:16;;;;;;;35.53;18.00;;;;;;;;;;5007383;28;20034;-36
2024/03/11 01:57:42;;;;;;;26.58;16.70;;;;;;;;;;5007255;28;20031;-36
2024/03/11 02:00:12;;;;;;;29.08;17.60;;;;;;;;;;5007290;28;20385;-39
2024/03/11 02:02:39;;;;;;;38.00;18.10;;;;;;;;;;5007789;28;20094;-38
2024/03/11 02:05:13;;;;;;;35.58;18.60;;;;;;;;;;5007302;28;20342;-35
2024/03/11 02:07:40;;;;;;;25.73;17.20;;;;;;;;;;5007459;28;20054;-38
2024/03/11 02:10:13;;;;;;;51.70;18.55;;;;;;;;;;5007403;28;20137;-36
2024/03/11 02:12:45;;;;;;;35.72;17.05;;;;;;;;;;5007544;28;20030;-42
2024/03/11 02:15:11;;;;;;;;;;;;;;;;;;5007164;28;20053;-40
2024/03/11 02:17:38;;;;;;;27.95;15.98;;;;;;;;;;5006745;28;19905;-38
2024/03/11 02:20:14;;;;;;;30.42;17.42;;;;;;;;;;5007171;28;20306;-37
2024/03/11 02:22:44;;;;;;;30.20;17.25;;;;;;;;;;5007457;28;20026;-38
2024/03/11 02:25:17;;;;;;;23.80;16.58;;;;;;;;;;5006987;28;20030;-45
2024/03/11 02:27:47;;;;;;;26.45;17.27;;;;;;;;;;5007163;28;20313;-35
2024/03/11 02:30:15;;;;;;;26.10;16.77;;;;;;;;;;5006813;28;20026;-35
2024/03/11 02:32:42;;;;;;;23.20;17.05;;;;;;;;;;5006774;28;20026;-35
2024/03/11 02:35:10;;;;;;;25.25;17.27;;;;;;;;;;5006510;28;20081;-38
2024/03/11 02:37:36;;;;;;;22.08;17.30;;;;;;;;;;5007085;28;20198;-47
2024/03/11 02:40:05;;;;;;;21.73;16.20;;;;;;;;;;5006477;28;20069;-36
2024/03/11 02:42:31;;;;;;;23.20;16.88;;;;;;;;;;5006244;28;20035;-40
2024/03/11 02:44:58;;;;;;;25.85;17.10;;;;;;;;;;5006584;28;20026;-36
2024/03/11 02:47:26;;;;;;;29.48;17.58;;;;;;;;;;5006776;28;20034;-37
2024/03/11 02:49:53;;;;;;;29.63;17.42;;;;;;;;;;5005773;28;20037;-37
2024/03/11 02:52:21;;;;;;;22.98;16.27;;;;;;;;;;5005626;28;20030;-41
2024/03/11 02:54:53;;;;;;;24.60;17.52;;;;;;;;;;5005481;28;20069;-35
2024/03/11 02:57:19;;;;;;;23.65;17.05;;;;;;;;;;5005805;28;20310;-38
2024/03/11 02:59:46;;;;;;;23.40;18.10;;;;;;;;;;5006287;28;20207;-43
2024/03/11 03:02:13;;;;;;;23.77;18.48;;;;;;;;;;5006539;28;20030;-39
2024/03/11 03:04:39;;;;;;;28.23;18.25;;;;;;;;;;5005991;28;20029;-41
2024/03/11 03:07:12;;;;;;;28.65;19.38;;;;;;;;;;5006335;28;20134;-41
2024/03/11 03:09:39;;;;;;;28.05;20.20;;;;;;;;;;5005887;28;20028;-35
2024/03/11 03:12:09;;;;;;;31.67;20.88;;;;;;;;;;5006311;28;20044;-37
2024/03/11 03:14:38;;;;;;;76.60;60.67;;;;;;;;;;5005791;28;20049;-36
2024/03/11 03:17:07;;;;;;;49.00;33.28;;;;;;;;;;5005994;28;20022;-38
2024/03/11 03:19:34;;;;;;;35.05;25.25;;;;;;;;;;5005790;28;20338;-36
2024/03/11 03:22:01;;;;;;;31.65;22.95;;;;;;;;;;5006011;28;20040;-37
2024/03/11 03:24:27;;;;;;;31.75;22.35;;;;;;;;;;5005589;28;20029;-39
2024/03/11 03:26:54;;;;;;;30.08;21.35;;;;;;;;;;5005701;28;20053;-41
2024/03/11 03:29:21;;;;;;;33.40;22.33;;;;;;;;;;5004528;28;20362;-44
2024/03/11 03:31:48;;;;;;;26.63;20.92;;;;;;;;;;5005723;28;20242;-43
2024/03/11 03:34:14;;;;;;;32.38;22.75;;;;;;;;;;5005357;28;20222;-44
2024/03/11 03:36:41;;;;;;;35.22;25.42;;;;;;;;;;5005725;28;20023;-42
2024/03/11 03:39:08;;;;;;;32.38;24.75;;;;;;;;;;5005601;28;20041;-37
2024/03/11 03:41:38;;;;;;;44.17;33.20;;;;;;;;;;5005530;28;20077;-42
2024/03/11 03:44:05;;;;;;;38.13;28.75;;;;;;;;;;5005413;28;20022;-44
2024/03/11 03:46:32;;;;;;;33.38;23.80;;;;;;;;;;5005283;28;20030;-37
2024/03/11 03:48:59;;;;;;;34.85;21.80;;;;;;;;;;5005386;28;20026;-35
2024/03/11 03:51:26;;;;;;;29.38;21.35;;;;;;;;;;5005426;28;20030;-36
2024/03/11 03:53:53;;;;;;;30.60;22.13;;;;;;;;;;5005138;28;20033;-39
2024/03/11 03:56:19;;;;;;;28.95;21.75;;;;;;;;;;5005310;28;20302;-35
2024/03/11 03:58:46;;;;;;;32.92;22.25;;;;;;;;;;5005158;28;20030;-36
2024/03/11 04:01:13;;;;;;;31.00;21.55;;;;;;;;;;5005025;28;20089;-38
2024/03/11 04:03:39;;;;;;;29.10;20.80;;;;;;;;;;5005180;28;20068;-36
2024/03/11 04:06:06;;;;;;;25.17;20.45;;;;;;;;;;5005080;28;20053;-38
2024/03/11 04:08:32;;;;;;;26.27;21.75;;;;;;;;;;5004954;28;20281;-36
2024/03/11 04:10:59;;;;;;;26.08;20.83;;;;;;;;;;5005149;28;20121;-36
2024/03/11 04:13:28;;;;;;;26.88;21.05;;;;;;;;;;5004695;28;20085;-35
2024/03/11 04:15:56;;;;;;;28.85;21.23;;;;;;;;;;5004906;28;20018;-35
2024/03/11 04:18:26;;;;;;;31.08;22.38;;;;;;;;;;5004715;28;20034;-35
2024/03/11 04:20:56;;;;;;;32.10;23.63;;;;;;;;;;5004885;28;20037;-36
2024/03/11 04:23:29;;;;;;;34.53;25.50;;;;;;;;;;5004558;28;20017;-46
2024/03/11 04:25:56;;;;;;;31.92;23.63;;;;;;;;;;5004611;28;20202;-42
2024/03/11 04:28:23;;;;;;;29.40;22.80;;;;;;;;;;5004546;28;20022;-41
2024/03/11 04:30:50;;;;;;;29.02;21.52;;;;;;;;;;5004498;28;20018;-38
2024/03/11 04:33:17;;;;;;;36.50;22.15;;;;;;;;;;5004724;28;20309;-39
2024/03/11 04:35:44;;;;;;;31.20;22.05;;;;;;;;;;5004558;28;20314;-42
2024/03/11 04:38:12;;;;;;;25.73;21.05;;;;;;;;;;5004367;28;20026;-41
2024/03/11 04:40:40;;;;;;;34.03;21.73;;;;;;;;;;5003833;28;20050;-43
2024/03/11 04:43:07;;;;;;;28.63;19.75;;;;;;;;;;5004392;28;20018;-46
2024/03/11 04:45:36;;;;;;;27.63;20.45;;;;;;;;;;5004229;28;20301;-48
2024/03/11 04:48:04;;;;;;;27.55;19.83;;;;;;;;;;5004349;28;20026;-43
2024/03/11 04:50:32;;;;;;;28.25;20.45;;;;;;;;;;5004506;28;20076;-45
2024/03/11 04:53:06;;;;;;;29.85;19.85;;;;;;;;;;5004178;28;20126;-54
2024/03/11 04:55:33;;;;;;;24.88;20.65;;;;;;;;;;5004154;28;20022;-46
2024/03/11 04:58:00;;;;;;;26.45;19.98;;;;;;;;;;5004362;28;20073;-43
2024/03/11 05:00:28;;;;;;;28.08;20.60;;;;;;;;;;5004456;28;20187;-50
2024/03/11 05:02:55;;;;;;;25.08;21.85;;;;;;;;;;5004775;28;20042;-41
2024/03/11 05:05:21;;;;;;;26.13;21.60;;;;;;;;;;5004270;28;20104;-47
2024/03/11 05:07:51;;;;;;;25.52;21.85;;;;;;;;;;5004548;28;20243;-47
2024/03/11 05:10:18;;;;;;;26.48;21.48;;;;;;;;;;5004237;28;20034;-44
2024/03/11 05:12:45;;;;;;;25.45;21.70;;;;;;;;;;5004097;28;20026;-48
2024/03/11 05:15:13;;;;;;;29.17;21.90;;;;;;;;;;5004034;28;20026;-47
2024/03/11 05:17:40;;;;;;;27.73;21.48;;;;;;;;;;5004504;28;20027;-49
2024/03/11 05:20:11;;;;;;;26.90;21.42;;;;;;;;;;5004068;28;20033;-42
2024/03/11 05:22:41;;;;;;;30.60;22.02;;;;;;;;;;5004429;28;20025;-52
2024/03/11 05:25:20;;;;;;;26.52;22.42;;;;;;;;;;5003990;28;20030;-48
2024/03/11 05:27:47;;;;;;;25.77;21.10;;;;;;;;;;5004379;28;20049;-49
2024/03/11 05:30:14;;;;;;;25.23;21.70;;;;;;;;;;5004005;28;20022;-45
2024/03/11 05:32:41;;;;;;;23.10;20.63;;;;;;;;;;5004506;28;20026;-41
2024/03/11 05:35:07;;;;;;;25.48;20.92;;;;;;;;;;5003794;28;20373;-47
2024/03/11 05:37:34;;;;;;;27.83;21.70;;;;;;;;;;5004452;28;20026;-53
2024/03/11 05:40:03;;;;;;;28.35;21.98;;;;;;;;;;5003709;28;20113;-44
2024/03/11 05:42:30;;;;;;;26.38;21.05;;;;;;;;;;5004143;28;20067;-49
2024/03/11 05:44:56;;;;;;;29.58;21.60;;;;;;;;;;5003869;28;20033;-42
2024/03/11 05:47:26;;;;;;;29.80;22.35;;;;;;;;;;5004256;28;20049;-44
2024/03/11 05:49:53;;;;;;;27.50;22.10;;;;;;;;;;5003705;28;20038;-50
2024/03/11 05:52:21;;;;;;;29.33;21.92;;;;;;;;;;5005395;28;20250;-47
2024/03/11 05:54:51;;;;;;;31.85;22.35;;;;;;;;;;5007356;28;20086;-42
2024/03/11 05:57:29;;;;;;;28.30;22.50;;;;;;;;;;5007177;28;20082;-42
2024/03/11 05:59:56;;;;;;;29.77;21.90;;;;;;;;;;5007309;28;20027;-36
2024/03/11 06:02:23;;;;;;;29.13;21.65;;;;;;;;;;5007561;28;20051;-37
2024/03/11 06:04:49;;;;;;;25.52;22.15;;;;;;;;;;5007512;28;20213;-42
2024/03/11 06:07:23;;;;;;;26.35;21.08;;;;;;;;;;5007649;28;20053;-35
2024/03/11 06:09:51;;;;;;;29.08;21.85;;;;;;;;;;5007022;28;20029;-41
2024/03/11 06:12:19;;;;;;;25.70;21.48;;;;;;;;;;5007412;28;20081;-47
2024/03/11 06:14:47;;;;;;;28.50;21.90;;;;;;;;;;5006940;28;20026;-43
2024/03/11 06:17:15;;;;;;;30.35;22.30;;;;;;;;;;5007172;28;20038;-43
2024/03/11 06:19:42;;;;;;;27.08;22.17;;;;;;;;;;5006974;28;20337;-40
2024/03/11 06:22:10;;;;;;;25.08;21.90;;;;;;;;;;5007205;28;20030;-42
2024/03/11 06:24:40;;;;;;;29.25;22.27;;;;;;;;;;5006741;28;20249;-39
2024/03/11 06:27:07;;;;;;;26.08;21.25;;;;;;;;;;5007377;28;20058;-39
2024/03/11 06:29:35;;;;;;;25.05;21.33;;;;;;;;;;5006829;28;20026;-40
2024/03/11 06:32:05;;;;;;;27.48;21.58;;;;;;;;;;5006948;28;20335;-42
2024/03/11 06:34:34;;;;;;;28.45;22.48;;;;;;;;;;5006602;28;20052;-43
2024/03/11 06:37:01;;;;;;;24.70;21.60;;;;;;;;;;5006764;28;20218;-42
2024/03/11 06:39:29;;;;;;;26.80;21.05;;;;;;;;;;5006360;28;20022;-41
2024/03/11 06:41:57;;;;;;;28.05;21.52;;;;;;;;;;5006475;28;20345;-39
2024/03/11 06:44:24;;;;;;;28.50;21.35;;;;;;;;;;5006328;28;20030;-48
2024/03/11 06:46:51;;;;;;;28.88;21.50;;;;;;;;;;5006686;28;20353;-41
2024/03/11 06:49:18;;;;;;;29.23;21.50;;;;;;;;;;5006404;28;20030;-41
2024/03/11 06:51:45;;;;;;;26.42;22.33;;;;;;;;;;5006672;28;20033;-58
2024/03/11 06:54:11;;;;;;;27.45;21.20;;;;;;;;;;5006364;28;20030;-43
2024/03/11 06:56:38;;;;;;;26.23;21.55;;;;;;;;;;5006676;28;20026;-41
2024/03/11 06:59:05;;;;;;;26.05;21.80;;;;;;;;;;5006234;28;20029;-45
2024/03/11 07:01:33;;;;;;;23.95;21.48;;;;;;;;;;5006357;28;20084;-44
2024/03/11 07:04:01;;;;;;;23.88;21.10;;;;;;;;;;5005890;28;20085;-44
2024/03/11 07:06:27;;;;;;;24.40;21.17;;;;;;;;;;5006162;28;20302;-42
2024/03/11 07:08:54;;;;;;;24.42;21.77;;;;;;;;;;5006164;28;20038;-43
2024/03/11 07:11:21;;;;;;;24.83;22.08;;;;;;;;;;5006191;28;20038;-42
2024/03/11 07:13:48;;;;;;;28.20;22.08;;;;;;;;;;5005840;28;20089;-42
2024/03/11 07:16:16;;;;;;;24.80;21.38;;;;;;;;;;5006035;28;20035;-40
2024/03/11 07:18:43;;;;;;;26.00;22.08;;;;;;;;;;5006141;28;20064;-41
2024/03/11 07:21:10;;;;;;;27.38;22.02;;;;;;;;;;5005900;28;20065;-45
2024/03/11 07:23:37;;;;;;;27.40;22.92;;;;;;;;;;5005775;28;20030;-41
2024/03/11 07:26:04;;;;;;;28.67;22.65;;;;;;;;;;5005867;28;20030;-41
2024/03/11 07:28:32;;;;;;;26.50;23.10;;;;;;;;;;5005651;28;20018;-41
2024/03/11 07:31:00;;;;;;;25.52;22.70;;;;;;;;;;5005608;28;20045;-45
2024/03/11 07:33:27;;;;;;;30.33;22.80;;;;;;;;;;5005471;28;20029;-43
2024/03/11 07:35:54;;;;;;;27.40;22.92;;;;;;;;;;5005582;28;20030;-54
2024/03/11 07:38:23;;;;;;;26.05;22.90;;;;;;;;;;5005451;28;20073;-49
2024/03/11 07:40:50;;;;;;;28.77;23.40;;;;;;;;;;5005233;28;20046;-40
2024/03/11 07:43:16;;;;;;;28.17;23.85;;;;;;;;;;5005291;28;20045;-42
2024/03/11 07:45:43;;;;;;;29.55;23.38;;;;;;;;;;5005480;28;20042;-44
2024/03/11 07:48:12;;;;;;;28.90;22.77;;;;;;;;;;5005276;28;20057;-41
2024/03/11 07:50:39;;;;;;;26.52;22.95;;;;;;;;;;5005086;28;20045;-51
2024/03/11 07:53:05;;;;;;;24.45;21.67;;;;;;;;;;5005494;28;20169;-41
2024/03/11 07:55:34;;;;;;;26.52;23.40;;;;;;;;;;5005015;28;20037;-44
2024/03/11 07:58:01;;;;;;;26.95;21.92;;;;;;;;;;5005036;28;20052;-46
2024/03/11 08:00:31;;;;;;;25.50;22.00;;;;;;;;;;5005108;28;20137;-45
2024/03/11 08:02:58;;;;;;;26.17;22.58;;;;;;;;;;5005069;28;20093;-43
2024/03/11 08:05:25;;;;;;;27.75;22.10;;;;;;;;;;5004854;28;20018;-41
2024/03/11 08:07:52;;;;;;;24.77;22.00;;;;;;;;;;5005510;28;20034;-43
2024/03/11 08:10:19;;;;;;;26.92;22.25;;;;;;;;;;5004983;28;20026;-41
2024/03/11 08:12:47;;;;;;;27.33;21.10;;;;;;;;;;5005204;28;20026;-47
2024/03/11 08:15:14;;;;;;;26.85;22.00;;;;;;;;;;5004434;28;20265;-40
2024/03/11 08:17:44;;;;;;;24.90;21.15;;;;;;;;;;5005337;28;20307;-40
2024/03/11 08:20:17;;;;;;;23.15;20.55;;;;;;;;;;5004619;28;20022;-36
2024/03/11 08:22:52;;;;;;;25.48;21.08;;;;;;;;;;5005266;28;20014;-39
2024/03/11 08:25:22;;;;;;;24.75;20.70;;;;;;;;;;5004693;28;20026;-34
2024/03/11 08:27:52;;;;;;;25.35;21.50;;;;;;;;;;5004559;28;20061;-36
2024/03/11 08:30:19;;;;;;;23.35;20.88;;;;;;;;;;5004692;28;20022;-34
2024/03/11 08:32:50;;;;;;;23.88;21.20;;;;;;;;;;5004955;28;20034;-43
2024/03/11 08:35:17;;;;;;;25.80;21.88;;;;;;;;;;5004421;28;20037;-41
2024/03/11 08:37:45;;;;;;;23.80;20.75;;;;;;;;;;5004910;28;20022;-38
2024/03/11 08:40:14;;;;;;;23.98;21.38;;;;;;;;;;5004282;28;20055;-41
2024/03/11 08:42:44;;;;;;;25.33;21.20;;;;;;;;;;5004887;28;20050;-45
2024/03/11 08:45:18;;;;;;;27.38;20.40;;;;;;;;;;5004358;28;20026;-41
2024/03/11 08:47:47;;;;;;;24.65;20.73;;;;;;;;;;5004702;28;20053;-46
2024/03/11 08:50:17;;;;;;;26.35;21.48;;;;;;;;;;5004386;28;20023;-44
2024/03/11 08:52:48;;;;;;;22.50;20.13;;;;;;;;;;5004763;28;20097;-44
2024/03/11 08:55:15;;;;;;;25.77;21.08;;;;;;;;;;5004224;28;20022;-40
2024/03/11 08:57:42;;;;;;;23.90;20.17;;;;;;;;;;5004707;28;20214;-41
2024/03/11 09:00:10;;;;;;;23.27;20.27;;;;;;;;;;5004150;28;20081;-41
2024/03/11 09:02:37;;;;;;;23.17;20.77;;;;;;;;;;5004678;28;20026;-40
2024/03/11 09:05:12;;;;;;;23.65;20.38;;;;;;;;;;5004338;28;20023;-50
2024/03/11 09:07:41;;;;;;;23.55;20.92;;;;;;;;;;5004512;28;20061;-46
2024/03/11 09:10:09;;;;;;;23.25;20.80;;;;;;;;;;5004149;28;20018;-45
2024/03/11 09:12:37;;;;;;;26.98;20.33;;;;;;;;;;5004022;28;20030;-44
2024/03/11 09:15:12;;;;;;;22.73;20.15;;;;;;;;;;5003878;28;20092;-41
2024/03/11 09:17:42;;;;;;;24.85;21.02;;;;;;;;;;5004563;28;20098;-41
2024/03/11 09:20:15;;;;;;;23.95;21.27;;;;;;;;;;5003970;28;20082;-47
2024/03/11 09:22:45;;;;;;;24.02;20.30;;;;;;;;;;5004513;28;20259;-40
2024/03/11 09:25:17;;;;;;;24.33;20.30;;;;;;;;;;5003995;28;20023;-47
2024/03/11 09:27:47;;;;;;;24.33;19.90;;;;;;;;;;5007927;28;20191;-43
2024/03/11 09:30:14;;;;;;;24.60;20.00;;;;;;;;;;5007873;28;20072;-36
2024/03/11 09:32:44;;;;;;;23.30;20.13;;;;;;;;;;5008294;28;20329;-34
2024/03/11 09:35:16;;;;;;;25.88;21.17;;;;;;;;;;5007758;28;20263;-39
2024/03/11 09:37:52;;;;;;;30.15;21.85;;;;;;;;;;5008223;28;20073;-36
2024/03/11 09:40:19;;;;;;;23.77;21.27;;;;;;;;;;5007317;28;20054;-37
2024/03/11 09:42:49;;;;;;;28.05;20.80;;;;;;;;;;5008134;28;20325;-41
2024/03/11 09:45:22;;;;;;;29.17;21.15;;;;;;;;;;5007849;28;20205;-33
2024/03/11 09:47:52;;;;;;;24.75;19.80;;;;;;;;;;5008009;28;20218;-44
2024/03/11 09:50:28;;;;;;;23.75;20.33;;;;;;;;;;5007654;28;20033;-37
2024/03/11 09:52:57;;;;;;;23.67;20.92;;;;;;;;;;5007880;28;20045;-44
2024/03/11 09:55:28;;;;;;;27.35;22.35;;;;;;;;;;5007342;28;20046;-47
2024/03/11 09:57:56;;;;;;;26.80;21.33;;;;;;;;;;5007297;28;20026;-42
2024/03/11 10:00:24;;;;;;;26.98;21.25;;;;;;;;;;5007246;28;20097;-37
2024/03/11 10:02:54;;;;;;;36.55;22.70;;;;;;;;;;5007794;28;20073;-42
2024/03/11 10:05:22;;;;;;;27.27;21.90;;;;;;;;;;5007247;28;20373;-48
2024/03/11 10:07:49;;;;;;;26.60;22.40;;;;;;;;;;5007693;28;20306;-38
2024/03/11 10:10:16;;;;;;;30.88;22.88;;;;;;;;;;5007108;28;20018;-43
2024/03/11 10:12:58;;;;;;;24.83;22.20;;;;;;;;;;5007661;28;20037;-36
2024/03/11 10:15:32;;;;;;;31.27;23.20;;;;;;;;;;5007284;28;20306;-39
2024/03/11 10:18:07;;;;;;;28.90;24.02;;;;;;;;;;5006983;28;20073;-34
2024/03/11 10:20:34;;;;;;;30.85;23.95;;;;;;;;;;5007364;28;20381;-41
2024/03/11 10:23:08;;;;;;;32.30;23.70;;;;;;;;;;5006881;28;20018;-41
2024/03/11 10:25:35;;;;;;;30.95;23.80;;;;;;;;;;5006661;28;20376;-39
2024/03/11 10:28:06;;;;;;;62.60;26.13;;;;;;;;;;5006979;28;20318;-45
2024/03/11 10:30:33;;;;;;;69.47;27.23;;;;;;;;;;5006696;28;20027;-44
2024/03/11 10:33:02;;;;;;;50.17;25.48;;;;;;;;;;5006567;28;20022;-44
2024/03/11 10:35:39;;;;;;;66.97;26.08;;;;;;;;;;5006695;28;20053;-39
2024/03/11 10:38:12;;;;;;;64.35;24.63;;;;;;;;;;5005848;28;20026;-38
2024/03/11 10:40:41;;;;;;;39.72;23.80;;;;;;;;;;5006453;28;20053;-39
2024/03/11 10:43:34;;;;;;;69.38;25.10;;;;;;;;;;5006545;28;20029;-39
2024/03/11 10:46:07;;;;;;;169.27;34.38;;;;;;;;;;5004164;28;20041;-43
2024/03/11 10:48:34;;;;;;;101.55;27.00;;;;;;;;;;5006307;28;20054;-44
2024/03/11 10:51:02;;;;;;;60.42;24.08;;;;;;;;;;5006394;28;20050;-41
2024/03/11 10:53:30;;;;;;;79.93;26.10;;;;;;;;;;5006297;28;20085;-46
2024/03/11 10:55:58;;;;;;;63.45;25.33;;;;;;;;;;5006180;28;20069;-47
2024/03/11 10:58:28;;;;;;;52.10;25.17;;;;;;;;;;5006546;28;20076;-42
2024/03/11 11:00:55;;;;;;;39.80;24.52;;;;;;;;;;5006279;28;20030;-41
2024/03/11 11:03:23;;;;;;;47.25;24.17;;;;;;;;;;5006101;28;20045;-43
2024/03/11 11:06:09;;;;;;;44.25;24.00;;;;;;;;;;5006154;28;20014;-44
2024/03/11 11:08:37;;;;;;;45.08;24.80;;;;;;;;;;5005953;28;20030;-43
2024/03/11 11:11:04;;;;;;;41.17;25.05;;;;;;;;;;5006189;28;20032;-51
2024/03/11 11:13:34;;;;;;;36.15;23.95;;;;;;;;;;5005975;28;20334;-41
2024/03/11 11:16:04;;;;;;;45.70;24.70;;;;;;;;;;5005886;28;20030;-41
2024/03/11 11:18:33;;;;;;;38.85;24.38;;;;;;;;;;5005961;28;20034;-41
2024/03/11 11:21:00;;;;;;;37.25;25.90;;;;;;;;;;5005861;28;20164;-39
2024/03/11 11:23:34;;;;;;;36.22;25.42;;;;;;;;;;5005890;28;20018;-44
2024/03/11 11:26:02;;;;;;;37.97;24.85;;;;;;;;;;5005809;28;20033;-40
2024/03/11 11:28:28;;;;;;;37.80;26.52;;;;;;;;;;5005796;28;20048;-41
2024/03/11 11:31:14;;;;;;;44.55;25.33;;;;;;;;;;5005621;28;20022;-38
2024/03/11 11:33:59;;;;;;;41.10;25.05;;;;;;;;;;5005609;28;20077;-43
2024/03/11 11:38:58;;;;;;;41.00;25.75;;;;;;;;;;5005626;28;20018;-42
2024/03/11 11:41:39;;;;;;;35.33;25.13;;;;;;;;;;5005082;28;20342;-39
2024/03/11 11:44:07;;;;;;;45.55;24.92;;;;;;;;;;5005460;28;20030;-42
2024/03/11 11:46:43;;;;;;;39.00;25.10;;;;;;;;;;5005418;28;20037;-41
2024/03/11 11:49:19;;;;;;;37.78;25.15;;;;;;;;;;5004911;28;20022;-39
2024/03/11 11:51:46;;;;;;;43.22;25.17;;;;;;;;;;5005273;28;20038;-46
2024/03/11 11:54:26;;;;;;;35.40;25.08;;;;;;;;;;5005162;28;20310;-38
2024/03/11 11:57:02;;;;;;;34.95;23.65;;;;;;;;;;5005515;28;20092;-41
2024/03/11 11:59:29;;;;;;;37.70;25.08;;;;;;;;;;5005210;28;20025;-46
2024/03/11 12:02:00;;;;;;;31.35;25.15;;;;;;;;;;5005340;28;20027;-39
2024/03/11 12:04:28;;;;;;;38.67;25.70;;;;;;;;;;5005216;28;20022;-42
2024/03/11 12:06:55;;;;;;;37.95;24.92;;;;;;;;;;5005283;28;20034;-43
2024/03/11 12:09:23;;;;;;;32.13;25.08;;;;;;;;;;5005176;28;20064;-50
2024/03/11 12:11:49;;;;;;;37.22;24.77;;;;;;;;;;5005026;28;20034;-39
2024/03/11 12:14:19;;;;;;;35.72;24.70;;;;;;;;;;5004894;28;20086;-42
2024/03/11 12:16:46;;;;;;;33.50;24.58;;;;;;;;;;5005072;28;20026;-41
2024/03/11 12:19:12;;;;;;;31.33;24.38;;;;;;;;;;5004642;28;20368;-39
2024/03/11 12:21:40;;;;;;;36.22;24.48;;;;;;;;;;5004995;28;20309;-42
2024/03/11 12:24:10;;;;;;;29.67;23.45;;;;;;;;;;5004718;28;20243;-39
2024/03/11 12:26:38;;;;;;;35.08;24.27;;;;;;;;;;5004623;28;20026;-48
2024/03/11 12:29:04;;;;;;;34.28;24.77;;;;;;;;;;5004633;28;20026;-40
2024/03/11 12:31:36;;;;;;;29.80;23.38;;;;;;;;;;5004758;28;20054;-39
2024/03/11 12:34:06;;;;;;;30.45;24.33;;;;;;;;;;5004387;28;20031;-40
2024/03/11 12:36:35;;;;;;;43.17;24.45;;;;;;;;;;5004667;28;20306;-39
2024/03/11 12:39:03;;;;;;;34.95;24.67;;;;;;;;;;5004453;28;20026;-42
2024/03/11 12:41:37;;;;;;;32.22;24.25;;;;;;;;;;5004459;28;20090;-42
2024/03/11 12:44:19;;;;;;;29.35;24.63;;;;;;;;;;5004453;28;20023;-42
2024/03/11 12:46:50;;;;;;;29.60;23.70;;;;;;;;;;5004796;28;20037;-41
2024/03/11 12:49:19;;;;;;;40.70;24.40;;;;;;;;;;5004390;28;20022;-34
2024/03/11 12:51:47;;;;;;;32.30;23.23;;;;;;;;;;5004425;28;20058;-38
2024/03/11 12:54:22;;;;;;;48.47;23.98;;;;;;;;;;5004239;28;20026;-33
2024/03/11 12:57:04;;;;;;;47.85;24.83;;;;;;;;;;5004513;28;20026;-33
2024/03/11 12:59:31;;;;;;;31.90;23.67;;;;;;;;;;5004317;28;20014;-40
2024/03/11 13:02:20;;;;;;;39.50;24.63;;;;;;;;;;5009065;28;20298;-47
2024/03/11 13:04:49;;;;;;;37.42;24.98;;;;;;;;;;5010791;28;20049;-42
2024/03/11 13:07:17;;;;;;;40.70;25.80;;;;;;;;;;5011091;28;20037;-46
2024/03/11 13:09:45;;;;;;;42.10;26.58;;;;;;;;;;5010874;28;20026;-44
2024/03/11 13:12:16;;;;;;;40.17;27.52;;;;;;;;;;5010572;28;20085;-39
2024/03/11 13:14:48;;;;;;;33.03;26.45;;;;;;;;;;5010654;28;20045;-47
2024/03/11 13:17:16;;;;;;;34.13;23.60;;;;;;;;;;5011008;28;20046;-48
2024/03/11 13:19:44;;;;;;;45.60;27.23;;;;;;;;;;5010651;28;20246;-42
2024/03/11 13:22:21;;;;;;;37.83;26.60;;;;;;;;;;5010875;28;20026;-44
2024/03/11 13:25:04;;;;;;;38.65;26.38;;;;;;;;;;5010544;28;20026;-46
2024/03/11 13:27:31;;;;;;;33.33;25.80;;;;;;;;;;5010699;28;20034;-47
2024/03/11 13:29:58;;;;;;;35.58;26.45;;;;;;;;;;5010440;28;20033;-49
2024/03/11 13:32:25;;;;;;;35.58;25.42;;;;;;;;;;5010892;28;20030;-37
2024/03/11 13:34:55;;;;;;;35.63;25.42;;;;;;;;;;5010284;28;20022;-34
2024/03/11 13:37:22;;;;;;;35.60;26.13;;;;;;;;;;5010854;28;20190;-34
2024/03/11 13:39:48;;;;;;;35.05;25.92;;;;;;;;;;5010132;28;20057;-42
2024/03/11 13:42:15;;;;;;;29.23;26.02;;;;;;;;;;5010698;28;20057;-40
2024/03/11 13:44:42;;;;;;;28.33;24.63;;;;;;;;;;5010364;28;20029;-40
2024/03/11 13:47:10;;;;;;;33.60;24.77;;;;;;;;;;5010694;28;20045;-41
2024/03/11 13:49:37;;;;;;;35.65;26.33;;;;;;;;;;5010236;28;20014;-48
2024/03/11 13:52:08;;;;;;;33.60;25.77;;;;;;;;;;5010654;28;20027;-45
2024/03/11 13:54:35;;;;;;;32.85;25.17;;;;;;;;;;5010195;28;20214;-38
2024/03/11 13:57:02;;;;;;;40.08;25.85;;;;;;;;;;5009945;28;20033;-42
2024/03/11 13:59:28;;;;;;;30.33;25.02;;;;;;;;;;5010256;28;20399;-41
2024/03/11 14:01:55;;;;;;;33.45;24.33;;;;;;;;;;5010661;28;20244;-39
2024/03/11 14:04:23;;;;;;;33.15;24.85;;;;;;;;;;5010089;28;20022;-44
2024/03/11 14:06:51;;;;;;;33.53;25.02;;;;;;;;;;5010495;28;20038;-40
2024/03/11 14:09:23;;;;;;;28.00;24.38;;;;;;;;;;5010189;28;20217;-45
2024/03/11 14:11:52;;;;;;;28.35;24.08;;;;;;;;;;5010338;28;20061;-40
2024/03/11 14:14:18;;;;;;;32.65;24.17;;;;;;;;;;5006355;28;20076;-40
2024/03/11 14:16:49;;;;;;;33.15;23.65;;;;;;;;;;5007365;28;20327;-48
2024/03/11 14:19:20;;;;;;;27.42;22.35;;;;;;;;;;5007149;28;20084;-38
2024/03/11 14:21:47;;;;;;;28.45;23.73;;;;;;;;;;5007141;28;20033;-45
2024/03/11 14:24:14;;;;;;;28.02;23.08;;;;;;;;;;5006890;28;20263;-43
2024/03/11 14:26:42;;;;;;;26.38;23.02;;;;;;;;;;5007044;28;20363;-38
2024/03/11 14:29:14;;;;;;;25.45;22.08;;;;;;;;;;5007156;28;20297;-42